ADDS METAR Data INFO
IDs: Format: Raw Decoded Include TAF

Data at: 0701 UTC 19 Oct 2017

KPDT 190653Z AUTO 15008KT 10SM CLR 10/05 A2970 RMK AO2 SLP050 T01000050
KPDT 190553Z AUTO 13005KT 10SM CLR 12/06 A2972 RMK AO2 SLP056 T01170056 10194 20094 57011
KPDT 190453Z AUTO 15005KT 10SM CLR 13/06 A2973 RMK AO2 SLP060 T01330061
KPDT 190353Z AUTO 32005KT 8SM CLR 11/08 A2974 RMK AO2 SLP065 T01060078
KPDT 190253Z 00000KT 10SM CLR 14/04 A2975 RMK AO2 SLP068 T01390044 56017
KPDT 190153Z 15004KT 10SM CLR 16/04 A2976 RMK AO2 SLP069 T01610039
KPDT 190053Z 00000KT 10SM CLR 17/04 A2978 RMK AO2 SLP076 T01670044
KPDT 182353Z 00000KT 10SM CLR 19/05 A2980 RMK AO2 SLP083 T01940050 10217 20128 58021
KPDT 182253Z 34004KT 10SM CLR 21/03 A2983 RMK AO2 SLP092 T02060033
KPDT 182153Z 32008KT 10SM CLR 22/04 A2985 RMK AO2 SLP098 T02170044
KPDT 182053Z 02004KT 10SM CLR 20/06 A2987 RMK AO2 SLP104 T02000056 58028
KPDT 181953Z 32003KT 10SM CLR 18/06 A2990 RMK AO2 SLP116 T01780056
KPDT 181853Z 14005KT 10SM CLR 15/07 A2993 RMK AO2 SLP128 T01500072
KPDT 181753Z 12005KT 10SM CLR 13/08 A2995 RMK AO2 SLP136 T01280078 10128 20089 58010
KPDT 181653Z 12005KT 10SM FEW080 12/07 A2997 RMK AO2 SLP144 T01170072
KPDT 181553Z 16005KT 10SM FEW120 10/07 A2998 RMK AO2 SLP147 T01000067
KPDT 181453Z 16005KT 10SM OVC060 09/07 A2998 RMK AO2 SLP148 T00890067 58011
KPDT 181353Z 17005KT 10SM SCT065 BKN120 09/06 A3000 RMK AO2 SLP152 T00890061
KPDT 181253Z 00000KT 10SM BKN085 OVC110 10/06 A3002 RMK AO2 SLP159 T01000061
KPDT 181153Z AUTO 11004KT 10SM CLR 09/06 A3002 RMK AO2 SLP158 T00890056 10128 20083 58010
KPDT 181053Z AUTO 15003KT 10SM FEW060 09/06 A3003 RMK AO2 SLP163 T00940056
KPDT 180953Z AUTO 35003KT 10SM OVC049 09/06 A3005 RMK AO2 SLP166 T00940056
KPDT 180853Z AUTO 31003KT 10SM BKN044 11/06 A3005 RMK AO2 SLP166 T01060061 58023
KPDT 180753Z AUTO 00000KT 10SM BKN048 11/06 A3007 RMK AO2 SLP174 T01110061 402330056
KPDT 180653Z AUTO 26007KT 10SM SCT055 11/05 A3010 RMK AO2 SLP186 T01110050
KPDT 180553Z AUTO 26007KT 10SM SCT049 OVC060 13/06 A3012 RMK AO2 SLP192 T01280056 10167 20117 53010
KPDT 180453Z AUTO 22009KT 10SM SCT065 12/06 A3010 RMK AO2 SLP189 T01220056
KPDT 180353Z AUTO 22009KT 10SM FEW050 BKN070 13/06 A3010 RMK AO2 SLP189 T01330056
KPDT 180253Z 23015KT 10SM BKN070 14/06 A3009 RMK AO2 SLP185 T01390061 51019
KPDT 180153Z 23016KT 10SM BKN075 14/07 A3008 RMK AO2 SLP183 T01390067
KPDT 180053Z 25020G24KT 10SM OVC080 15/07 A3007 RMK AO2 PK WND 27035/0009 SLP177 T01500067
KPDT 172353Z 27025G31KT 10SM BKN080 17/07 A3003 RMK AO2 PK WND 25033/2322 SLP163 60000 T01670072 10233 20150 51022
KPDT 172253Z 26020G26KT 10SM FEW020 BKN080 18/08 A3003 RMK AO2 PK WND 29030/2207 SLP164 T01780078
KPDT 172153Z 29017G23KT 10SM CLR 21/00 A2999 RMK AO2 PK WND 28027/2116 SLP149 T02060000
KPDT 172053Z 28019G25KT 10SM CLR 21/M01 A2996 RMK AO2 PK WND 27026/2010 RAE1955 SLP139 P0000 60000 T02111011 55013
KPDT 172007Z COR 25022KT 10SM CLR 23/M01 A2996
KPDT 171953Z 25015KT 10SM -RA CLR 23/M01 A2996 RMK AO2 RAB53 SLP134 P0000 T02331011